createdAt,value
2022-09-17T00:01:26.433Z,5.85
2022-09-17T00:04:04.361Z,5.80
2022-09-17T00:06:34.530Z,6.40
2022-09-17T00:09:02.888Z,5.43
2022-09-17T00:11:33.034Z,4.85
2022-09-17T00:14:03.052Z,5.38
2022-09-17T00:16:33.737Z,5.38
2022-09-17T00:19:01.958Z,5.10
2022-09-17T00:21:30.271Z,4.90
2022-09-17T00:24:03.519Z,5.25
2022-09-17T00:26:32.164Z,5.05
2022-09-17T00:29:01.350Z,4.55
2022-09-17T00:31:30.599Z,5.13
2022-09-17T00:33:59.603Z,4.20
2022-09-17T00:36:27.322Z,4.65
2022-09-17T00:38:57.355Z,4.53
2022-09-17T00:41:30.871Z,4.47
2022-09-17T00:44:22.102Z,4.85
2022-09-17T00:46:50.601Z,3.83
2022-09-17T00:49:28.506Z,4.38
2022-09-17T00:52:12.374Z,4.07
2022-09-17T00:54:44.867Z,4.97
2022-09-17T00:57:12.432Z,4.00
2022-09-17T00:59:40.026Z,4.43
2022-09-17T01:02:08.229Z,4.13
2022-09-17T01:04:35.823Z,4.80
2022-09-17T01:07:20.706Z,4.43
2022-09-17T01:10:08.490Z,5.03
2022-09-17T01:12:49.823Z,4.88
2022-09-17T01:15:20.339Z,4.30
2022-09-17T01:18:06.848Z,4.23
2022-09-17T01:20:43.987Z,5.05
2022-09-17T01:23:17.742Z,4.00
2022-09-17T01:26:14.287Z,4.60
2022-09-17T01:28:45.590Z,5.15
2022-09-17T01:31:25.232Z,4.47
2022-09-17T01:34:20.083Z,4.68
2022-09-17T01:37:01.331Z,4.22
2022-09-17T01:39:50.481Z,4.45
2022-09-17T01:42:38.244Z,5.00
2022-09-17T01:45:16.018Z,5.43
2022-09-17T01:48:02.563Z,4.82
2022-09-17T01:50:39.054Z,4.53
2022-09-17T01:53:09.532Z,4.10
2022-09-17T01:55:40.898Z,4.93
2022-09-17T01:58:18.244Z,4.53
2022-09-17T02:00:52.006Z,3.88
2022-09-17T02:03:28.158Z,4.57
2022-09-17T02:06:02.171Z,4.43
2022-09-17T02:08:39.745Z,4.05
2022-09-17T02:11:14.390Z,4.30
2022-09-17T02:14:14.688Z,4.22
2022-09-17T02:16:51.858Z,4.28
2022-09-17T02:19:26.145Z,4.20
2022-09-17T02:22:12.034Z,4.43
2022-09-17T02:25:02.706Z,4.50
2022-09-17T02:27:46.153Z,4.30
2022-09-17T02:30:14.789Z,4.15
2022-09-17T02:32:42.688Z,4.32
2022-09-17T02:35:13.926Z,4.20
2022-09-17T02:37:43.265Z,4.53
2022-09-17T02:40:13.589Z,4.03
2022-09-17T02:42:43.944Z,4.00
2022-09-17T02:45:28.855Z,4.05
2022-09-17T02:48:05.512Z,4.65
2022-09-17T02:50:51.765Z,4.55
2022-09-17T02:53:44.969Z,4.90
2022-09-17T02:56:21.259Z,4.75
2022-09-17T02:59:16.928Z,4.53
2022-09-17T03:01:55.904Z,4.40
2022-09-17T03:04:25.277Z,4.40
2022-09-17T03:06:53.964Z,4.90
2022-09-17T03:09:21.554Z,4.65
2022-09-17T03:11:49.235Z,5.00
2022-09-17T03:14:16.749Z,4.53
2022-09-17T03:16:44.266Z,4.47
2022-09-17T03:19:11.918Z,4.45
2022-09-17T03:21:39.625Z,4.05
2022-09-17T03:24:08.227Z,4.70
2022-09-17T03:26:35.796Z,5.05
2022-09-17T03:29:03.499Z,4.72
2022-09-17T03:31:31.261Z,5.40
2022-09-17T03:33:58.942Z,5.50
2022-09-17T03:36:26.514Z,4.63
2022-09-17T03:38:56.092Z,5.53
2022-09-17T03:41:24.410Z,5.15
2022-09-17T03:43:52.273Z,5.32
2022-09-17T03:46:20.513Z,4.40
2022-09-17T03:48:48.103Z,4.20
2022-09-17T03:51:15.605Z,4.50
2022-09-17T03:53:43.204Z,4.93
2022-09-17T03:56:10.826Z,5.43
2022-09-17T03:58:38.965Z,4.53
2022-09-17T04:01:06.635Z,4.47
2022-09-17T04:03:34.745Z,4.25
2022-09-17T04:06:02.275Z,4.47
2022-09-17T04:08:29.826Z,4.78
2022-09-17T04:10:57.429Z,5.43
2022-09-17T04:13:24.917Z,4.82
2022-09-17T04:15:52.526Z,5.43
2022-09-17T04:18:20.114Z,4.55
2022-09-17T04:20:47.582Z,4.68
2022-09-17T04:23:15.399Z,4.32
2022-09-17T04:25:43.006Z,4.18
2022-09-17T04:28:10.901Z,3.95
2022-09-17T04:30:39.286Z,4.00
2022-09-17T04:33:06.910Z,4.30
2022-09-17T04:35:34.437Z,5.15
2022-09-17T04:38:02.130Z,4.95
2022-09-17T04:40:29.948Z,5.32
2022-09-17T04:43:03.344Z,5.00
2022-09-17T04:45:33.579Z,4.90
2022-09-17T04:48:01.921Z,4.72
2022-09-17T04:50:29.527Z,5.00
2022-09-17T04:52:57.203Z,4.63
2022-09-17T04:55:25.379Z,4.15
2022-09-17T04:57:53.707Z,5.15
2022-09-17T05:00:22.421Z,5.10
2022-09-17T05:02:52.025Z,5.43
2022-09-17T05:05:20.780Z,5.00
2022-09-17T05:07:48.787Z,4.93
2022-09-17T05:10:18.252Z,4.15
2022-09-17T05:12:54.031Z,5.20
2022-09-17T05:15:23.010Z,5.05
2022-09-17T05:17:50.658Z,5.43
2022-09-17T05:20:18.747Z,5.07
2022-09-17T05:22:48.919Z,5.28
2022-09-17T05:25:18.176Z,5.43
2022-09-17T05:27:46.215Z,4.88
2022-09-17T05:30:13.945Z,5.15
2022-09-17T05:32:41.673Z,5.70
2022-09-17T05:35:10.084Z,5.20
2022-09-17T05:37:38.095Z,5.63
2022-09-17T05:40:08.156Z,4.50
2022-09-17T05:42:35.889Z,4.97
2022-09-17T05:45:05.476Z,5.60
2022-09-17T05:47:33.160Z,5.97
2022-09-17T05:50:00.962Z,5.22
2022-09-17T05:52:29.048Z,6.00
2022-09-17T05:54:57.055Z,5.35
2022-09-17T05:57:25.054Z,5.88
2022-09-17T05:59:52.581Z,5.68
2022-09-17T06:02:20.137Z,5.85
2022-09-17T06:04:47.704Z,5.47
2022-09-17T06:07:15.360Z,5.85
2022-09-17T06:09:42.905Z,5.25
2022-09-17T06:12:10.574Z,6.63
2022-09-17T06:14:38.166Z,7.25
2022-09-17T06:17:05.666Z,6.32
2022-09-17T06:19:33.817Z,6.25
2022-09-17T06:22:02.018Z,6.28
2022-09-17T06:24:29.795Z,6.35
2022-09-17T06:26:57.475Z,6.25
2022-09-17T06:29:24.982Z,6.35
2022-09-17T06:31:52.842Z,6.03
2022-09-17T06:34:20.456Z,6.20
2022-09-17T06:36:49.780Z,6.78
2022-09-17T06:39:17.566Z,7.82
2022-09-17T06:41:46.185Z,6.97
2022-09-17T06:44:16.655Z,6.85
2022-09-17T06:46:44.407Z,7.28
2022-09-17T06:49:12.169Z,6.30
2022-09-17T06:51:39.779Z,6.40
2022-09-17T06:54:08.447Z,7.68
2022-09-17T06:56:36.622Z,6.60
2022-09-17T06:59:04.445Z,7.30
2022-09-17T07:01:32.839Z,7.20
2022-09-17T07:04:00.428Z,7.60
2022-09-17T07:06:28.053Z,7.60
2022-09-17T07:08:55.596Z,7.05
2022-09-17T07:11:23.290Z,6.30
2022-09-17T07:13:50.867Z,7.45
2022-09-17T07:16:18.500Z,6.85
2022-09-17T07:18:46.298Z,6.85
2022-09-17T07:21:13.860Z,6.60
2022-09-17T07:23:41.542Z,7.40
2022-09-17T07:26:13.885Z,6.43
2022-09-17T07:28:43.941Z,6.97
2022-09-17T07:31:16.462Z,7.88
2022-09-17T07:33:44.940Z,7.80
2022-09-17T07:36:15.057Z,7.07
2022-09-17T07:38:42.745Z,7.03
2022-09-17T07:41:14.449Z,7.00
2022-09-17T07:46:20.337Z,5.65
2022-09-17T07:48:49.218Z,5.20
2022-09-17T07:51:22.410Z,4.90
2022-09-17T07:53:54.911Z,5.45
2022-09-17T07:56:23.469Z,4.13
2022-09-17T07:58:51.117Z,3.60
2022-09-17T08:01:20.923Z,4.95
2022-09-17T08:03:51.179Z,3.90
2022-09-17T08:06:26.098Z,4.07
2022-09-17T08:08:54.435Z,3.42
2022-09-17T08:11:51.822Z,3.75
2022-09-17T08:14:15.117Z,3.30
2022-09-17T08:16:42.966Z,3.40
2022-09-17T08:19:10.983Z,3.17
2022-09-17T08:21:38.875Z,2.70
2022-09-17T08:24:06.670Z,3.55
2022-09-17T08:26:34.241Z,3.50
2022-09-17T08:29:02.193Z,2.95
2022-09-17T08:31:30.825Z,2.90
2022-09-17T08:33:58.584Z,4.00
2022-09-17T08:36:26.619Z,3.72
2022-09-17T08:38:55.796Z,3.35
2022-09-17T08:41:33.090Z,3.38
2022-09-17T08:44:04.255Z,4.13
2022-09-17T08:46:53.426Z,3.78
2022-09-17T08:49:41.719Z,4.10
2022-09-17T08:52:19.547Z,4.15
2022-09-17T08:55:17.321Z,4.63
2022-09-17T08:58:22.068Z,3.70
2022-09-17T09:01:01.969Z,3.40
2022-09-17T09:04:03.651Z,2.97
2022-09-17T09:06:44.807Z,2.78
2022-09-17T09:09:15.797Z,2.50
2022-09-17T09:11:45.386Z,2.15
2022-09-17T09:14:31.444Z,2.55
2022-09-17T09:17:00.942Z,2.67
2022-09-17T09:19:38.478Z,2.25
2022-09-17T09:22:14.703Z,2.15
2022-09-17T09:24:51.499Z,1.63
2022-09-17T09:27:29.328Z,1.92
2022-09-17T09:30:02.271Z,7.55
2022-09-17T09:32:45.784Z,1.90
2022-09-17T09:35:23.641Z,1.73
2022-09-17T09:38:00.055Z,1.70
2022-09-17T09:40:36.171Z,1.48
2022-09-17T09:43:29.526Z,1.83
2022-09-17T09:46:28.144Z,1.35
2022-09-17T09:49:26.433Z,1.33
2022-09-17T09:52:32.767Z,1.50
2022-09-17T09:58:34.269Z,1.38
2022-09-17T10:00:53.958Z,1.15
2022-09-17T10:01:03.316Z,1.90
2022-09-17T10:03:33.236Z,1.20
2022-09-17T10:06:09.068Z,1.30
2022-09-17T10:08:56.539Z,1.23
2022-09-17T10:11:35.401Z,1.80
2022-09-17T10:14:16.226Z,1.55
2022-09-17T10:16:43.796Z,1.70
2022-09-17T10:19:20.196Z,2.03
2022-09-17T10:21:47.748Z,1.88
2022-09-17T10:24:30.178Z,1.73
2022-09-17T10:27:03.963Z,2.10
2022-09-17T10:29:31.947Z,2.15
2022-09-17T10:32:00.526Z,1.48
2022-09-17T10:34:30.994Z,1.45
2022-09-17T10:36:58.781Z,2.05
2022-09-17T10:39:42.608Z,1.40
2022-09-17T10:42:16.852Z,1.20
2022-09-17T10:44:55.534Z,1.30
2022-09-17T10:47:30.301Z,1.30
2022-09-17T10:50:01.417Z,1.30
2022-09-17T10:52:47.285Z,0.70
2022-09-17T10:55:36.510Z,1.00
2022-09-17T10:58:28.897Z,0.80
2022-09-17T11:01:25.085Z,0.70
2022-09-17T11:04:14.080Z,0.90
2022-09-17T11:06:56.584Z,0.85
2022-09-17T11:09:52.531Z,1.02
2022-09-17T11:12:23.030Z,0.95
2022-09-17T11:15:03.518Z,1.40
2022-09-17T11:17:52.634Z,1.30
2022-09-17T11:20:22.998Z,1.30
2022-09-17T11:23:31.779Z,1.10
2022-09-17T11:26:13.163Z,1.58
2022-09-17T11:28:43.527Z,1.10
2022-09-17T11:31:29.395Z,1.13
2022-09-17T11:34:08.300Z,1.02
2022-09-17T11:36:49.014Z,1.20
2022-09-17T11:39:24.574Z,1.15
2022-09-17T11:41:54.016Z,1.42
2022-09-17T11:44:33.087Z,2.75
2022-09-17T11:47:10.235Z,1.13
2022-09-17T11:50:11.474Z,1.10
2022-09-17T11:52:45.803Z,1.20
2022-09-17T11:55:50.674Z,1.00
2022-09-17T11:58:46.311Z,0.77
2022-09-17T12:01:28.219Z,1.30
2022-09-17T12:04:21.101Z,1.10
2022-09-17T12:07:33.485Z,1.25
2022-09-17T12:10:27.864Z,1.02
2022-09-17T12:13:19.734Z,2.47
2022-09-17T12:15:53.383Z,1.65
2022-09-17T12:18:35.994Z,1.60
2022-09-17T12:21:07.821Z,1.20
2022-09-17T12:23:43.105Z,1.50
2022-09-17T12:26:17.039Z,1.35
2022-09-17T12:29:11.460Z,1.60
2022-09-17T12:31:48.703Z,1.73
2022-09-17T12:34:25.244Z,1.10
2022-09-17T12:37:04.660Z,1.50
2022-09-17T12:40:13.255Z,1.20
2022-09-17T12:43:06.092Z,1.00
2022-09-17T12:45:50.748Z,1.08
2022-09-17T12:48:39.453Z,0.98
2022-09-17T12:51:10.051Z,1.10
2022-09-17T12:53:47.340Z,1.20
2022-09-17T12:56:45.066Z,1.00
2022-09-17T12:59:20.677Z,0.82
2022-09-17T13:02:01.486Z,0.93
2022-09-17T13:05:02.195Z,1.10
2022-09-17T13:08:11.414Z,2.35
2022-09-17T13:10:44.695Z,0.88
2022-09-17T13:13:48.259Z,1.10
2022-09-17T13:16:49.526Z,0.90
2022-09-17T13:19:31.879Z,0.85
2022-09-17T13:22:10.214Z,0.88
2022-09-17T13:24:37.911Z,0.80
2022-09-17T13:27:06.259Z,1.00
2022-09-17T13:29:46.064Z,0.85
2022-09-17T13:32:32.351Z,1.00
2022-09-17T13:35:12.165Z,1.20
2022-09-17T13:37:59.784Z,0.90
2022-09-17T13:40:35.430Z,0.88
2022-09-17T13:43:06.297Z,1.00
2022-09-17T13:45:49.132Z,1.67
2022-09-17T13:48:22.716Z,0.98
2022-09-17T13:50:50.327Z,0.75
2022-09-17T13:53:27.235Z,0.88
2022-09-17T13:56:01.120Z,0.80
2022-09-17T13:58:34.295Z,0.93
2022-09-17T14:01:11.897Z,1.00
2022-09-17T14:03:44.577Z,1.20
2022-09-17T14:06:12.225Z,1.45
2022-09-17T14:08:45.748Z,0.60
2022-09-17T14:11:32.474Z,0.80
2022-09-17T14:14:06.403Z,0.80
2022-09-17T14:16:55.978Z,0.73
2022-09-17T14:19:51.267Z,0.90
2022-09-17T14:22:26.967Z,0.82
2022-09-17T14:24:55.428Z,1.00
2022-09-17T14:27:32.055Z,0.70
2022-09-17T14:30:19.481Z,0.80
2022-09-17T14:33:08.668Z,1.15
2022-09-17T14:35:58.922Z,0.70
2022-09-17T14:38:44.771Z,0.85
2022-09-17T14:41:12.484Z,0.77
2022-09-17T14:43:46.171Z,0.73
2022-09-17T14:46:56.618Z,0.60
2022-09-17T14:49:35.592Z,0.75
2022-09-17T14:52:19.744Z,0.60
2022-09-17T14:54:47.330Z,0.70
2022-09-17T14:57:29.613Z,1.30
2022-09-17T14:59:57.829Z,1.10
2022-09-17T15:02:38.059Z,1.08
2022-09-17T15:05:22.810Z,0.77
2022-09-17T15:07:50.670Z,0.70
2022-09-17T15:10:22.611Z,0.63
2022-09-17T15:12:51.456Z,0.70
2022-09-17T15:15:24.628Z,0.93
2022-09-17T15:17:53.960Z,1.05
2022-09-17T15:20:29.417Z,0.68
2022-09-17T15:23:18.749Z,0.82
2022-09-17T15:25:50.095Z,0.55
2022-09-17T15:28:35.966Z,0.38
2022-09-17T15:31:06.560Z,1.17
2022-09-17T15:33:34.378Z,1.42
2022-09-17T15:36:13.228Z,0.77
2022-09-17T15:38:42.430Z,0.63
2022-09-17T15:41:30.983Z,0.65
2022-09-17T15:44:31.631Z,1.10
2022-09-17T15:47:39.397Z,1.02
2022-09-17T15:50:17.048Z,1.02
2022-09-17T15:52:45.190Z,1.90
2022-09-17T15:55:31.634Z,0.80
2022-09-17T15:58:00.607Z,0.80
2022-09-17T16:00:28.192Z,0.93
2022-09-17T16:02:55.851Z,1.17
2022-09-17T16:05:27.659Z,0.50
2022-09-17T16:07:55.281Z,0.80
2022-09-17T16:10:22.911Z,0.60
2022-09-17T16:12:50.505Z,0.57
2022-09-17T16:15:18.588Z,0.90
2022-09-17T16:17:47.453Z,0.90
2022-09-17T16:20:23.409Z,0.70
2022-09-17T16:22:52.799Z,0.68
2022-09-17T16:25:27.644Z,1.00
2022-09-17T16:28:03.945Z,0.70
2022-09-17T16:30:31.598Z,0.60
2022-09-17T16:33:00.155Z,0.60
2022-09-17T16:35:27.744Z,0.68
2022-09-17T16:37:56.642Z,0.93
2022-09-17T16:40:28.247Z,0.82
2022-09-17T16:42:56.102Z,7.43
2022-09-17T16:45:28.194Z,2.47
2022-09-17T16:47:56.958Z,0.82
2022-09-17T16:50:24.571Z,3.67
2022-09-17T16:52:53.509Z,2.17
2022-09-17T16:55:21.996Z,1.20
2022-09-17T16:57:49.617Z,1.33
2022-09-17T17:00:20.924Z,1.10
2022-09-17T17:05:20.460Z,4.18
2022-09-17T17:07:48.273Z,0.98
2022-09-17T17:10:16.634Z,0.95
2022-09-17T17:12:44.317Z,1.00
2022-09-17T17:15:11.878Z,0.98
2022-09-17T17:17:39.423Z,0.63
2022-09-17T17:20:13.655Z,0.80
2022-09-17T17:22:43.322Z,0.80
2022-09-17T17:25:14.059Z,0.90
2022-09-17T17:27:41.595Z,0.80
2022-09-17T17:30:16.606Z,0.93
2022-09-17T17:32:45.971Z,1.17
2022-09-17T17:35:13.633Z,0.88
2022-09-17T17:37:41.320Z,0.80
2022-09-17T17:40:10.283Z,0.70
2022-09-17T17:42:39.578Z,1.30
2022-09-17T17:45:08.483Z,1.20
2022-09-17T17:47:36.483Z,0.95
2022-09-17T17:50:05.139Z,1.13
2022-09-17T17:52:32.898Z,0.98
2022-09-17T17:55:00.456Z,0.85
2022-09-17T17:57:28.072Z,1.00
2022-09-17T17:59:56.796Z,1.00
2022-09-17T18:02:24.382Z,0.90
2022-09-17T18:04:52.064Z,1.10
2022-09-17T18:07:19.746Z,1.63
2022-09-17T18:09:48.302Z,2.47
2022-09-17T18:12:16.052Z,1.50
2022-09-17T18:14:43.667Z,1.42
2022-09-17T18:17:11.200Z,2.70
2022-09-17T18:19:38.738Z,1.27
2022-09-17T18:22:06.357Z,2.05
2022-09-17T18:24:34.591Z,1.75
2022-09-17T18:27:02.584Z,1.23
2022-09-17T18:29:30.232Z,1.23
2022-09-17T18:31:57.751Z,1.20
2022-09-17T18:34:25.458Z,1.20
2022-09-17T18:36:53.067Z,2.22
2022-09-17T18:42:09.596Z,1.08
2022-09-17T18:44:37.204Z,1.90
2022-09-17T18:47:04.784Z,0.90
2022-09-17T18:49:32.488Z,0.90
2022-09-17T18:52:00.011Z,1.10
2022-09-17T18:54:27.516Z,0.70
2022-09-17T18:56:55.090Z,1.88
2022-09-17T18:59:22.872Z,1.60
2022-09-17T19:01:50.520Z,1.08
2022-09-17T19:04:18.393Z,1.20
2022-09-17T19:06:46.060Z,1.02
2022-09-17T19:09:13.822Z,1.25
2022-09-17T19:11:41.363Z,1.58
2022-09-17T19:14:10.124Z,2.00
2022-09-17T19:16:38.397Z,1.20
2022-09-17T19:19:06.541Z,1.25
2022-09-17T19:21:34.925Z,1.50
2022-09-17T19:24:03.719Z,1.95
2022-09-17T19:26:31.418Z,2.22
2022-09-17T19:29:00.811Z,1.48
2022-09-17T19:31:29.445Z,1.30
2022-09-17T19:33:58.583Z,1.27
2022-09-17T19:36:26.444Z,1.65
2022-09-17T19:38:55.054Z,1.23
2022-09-17T19:41:23.377Z,1.60
2022-09-17T19:43:55.145Z,1.30
2022-09-17T19:46:25.229Z,1.13
2022-09-17T19:48:55.357Z,1.63
2022-09-17T19:51:25.960Z,1.20
2022-09-17T19:53:53.937Z,1.40
2022-09-17T19:56:24.055Z,1.45
2022-09-17T19:58:52.677Z,1.13
2022-09-17T20:01:20.982Z,1.33
2022-09-17T20:03:49.467Z,1.30
2022-09-17T20:06:19.103Z,1.10
2022-09-17T20:08:50.860Z,1.10
2022-09-17T20:11:20.547Z,0.97
2022-09-17T20:13:48.808Z,1.33
2022-09-17T20:16:19.507Z,1.35
2022-09-17T20:18:48.773Z,1.50
2022-09-17T20:21:19.570Z,1.40
2022-09-17T20:23:47.830Z,1.48
2022-09-17T20:26:16.786Z,1.40
2022-09-17T20:28:44.988Z,1.42
2022-09-17T20:31:16.498Z,1.83
2022-09-17T20:33:45.016Z,1.67
2022-09-17T20:36:18.702Z,1.92
2022-09-17T20:41:36.047Z,1.60
2022-09-17T20:44:04.163Z,1.40
2022-09-17T20:46:32.197Z,1.50
2022-09-17T20:49:01.338Z,1.85
2022-09-17T20:51:30.772Z,2.03
2022-09-17T20:53:58.713Z,1.98
2022-09-17T20:56:28.943Z,2.45
2022-09-17T20:59:04.074Z,2.03
2022-09-17T21:01:35.623Z,1.83
2022-09-17T21:06:38.915Z,1.65
2022-09-17T21:09:07.085Z,1.83
2022-09-17T21:11:35.110Z,2.55
2022-09-17T21:14:03.169Z,1.60
2022-09-17T21:16:31.357Z,1.98
2022-09-17T21:19:01.563Z,1.90
2022-09-17T21:21:29.961Z,1.80
2022-09-17T21:24:05.379Z,2.00
2022-09-17T21:26:34.400Z,1.60
2022-09-17T21:29:02.120Z,1.85
2022-09-17T21:31:36.676Z,1.75
2022-09-17T21:34:07.044Z,1.80
2022-09-17T21:36:36.975Z,1.83
2022-09-17T21:39:15.781Z,1.52
2022-09-17T21:41:45.074Z,1.92
2022-09-17T21:44:13.283Z,1.83
2022-09-17T21:46:42.661Z,1.50
2022-09-17T21:49:11.345Z,1.45
2022-09-17T21:51:41.167Z,1.30
2022-09-17T21:54:11.726Z,1.20
2022-09-17T21:56:39.785Z,1.67
2022-09-17T21:59:11.067Z,1.05
2022-09-17T22:01:43.845Z,1.20
2022-09-17T22:04:14.128Z,1.20
2022-09-17T22:06:42.555Z,1.00
2022-09-17T22:09:20.142Z,1.20
2022-09-17T22:11:48.306Z,0.93
2022-09-17T22:14:19.655Z,0.98
2022-09-17T22:16:50.915Z,0.90
2022-09-17T22:19:19.507Z,1.15
2022-09-17T22:21:51.166Z,0.80
2022-09-17T22:26:54.133Z,0.85
2022-09-17T22:29:25.187Z,1.35
2022-09-17T22:31:52.770Z,1.10
2022-09-17T22:34:22.359Z,1.50
2022-09-17T22:36:50.468Z,1.13
2022-09-17T22:39:21.015Z,1.30
2022-09-17T22:41:49.172Z,1.00
2022-09-17T22:44:19.350Z,0.88
2022-09-17T22:46:49.559Z,1.10
2022-09-17T22:49:18.271Z,1.02
2022-09-17T22:51:47.214Z,1.20
2022-09-17T22:54:16.581Z,0.90
2022-09-17T22:56:45.017Z,1.60
2022-09-17T22:59:12.579Z,1.05
2022-09-17T23:01:41.323Z,2.08
2022-09-17T23:04:09.074Z,1.15
2022-09-17T23:06:39.182Z,1.13
2022-09-17T23:09:06.871Z,1.10
2022-09-17T23:11:37.059Z,1.00
2022-09-17T23:14:08.291Z,1.23
2022-09-17T23:16:38.367Z,1.35
2022-09-17T23:19:06.179Z,1.10
2022-09-17T23:21:34.002Z,1.15
2022-09-17T23:24:02.201Z,1.05
2022-09-17T23:26:30.126Z,1.05
2022-09-17T23:29:02.451Z,1.00
2022-09-17T23:31:34.933Z,1.20
2022-09-17T23:34:04.053Z,0.80
2022-09-17T23:36:35.168Z,1.00
2022-09-17T23:39:03.935Z,1.48
2022-09-17T23:41:33.881Z,1.05
2022-09-17T23:44:03.808Z,1.45
2022-09-17T23:46:33.573Z,1.20
2022-09-17T23:49:01.939Z,1.15
2022-09-17T23:51:33.372Z,1.10
2022-09-17T23:54:01.078Z,1.13
2022-09-17T23:56:29.270Z,1.00
2022-09-17T23:58:59.606Z,0.80
